createdAt,value
2023-02-23T00:01:52.244Z,100062.38
2023-02-23T00:04:18.962Z,100051.03
2023-02-23T00:06:45.698Z,100056.88
2023-02-23T00:09:16.822Z,100053.34
2023-02-23T00:11:43.366Z,100047.16
2023-02-23T00:14:09.848Z,100050.47
2023-02-23T00:16:37.595Z,100053.00
2023-02-23T00:19:07.945Z,100038.28
2023-02-23T00:21:35.327Z,100040.75
2023-02-23T00:24:08.898Z,100039.78
2023-02-23T00:26:37.542Z,100040.69
2023-02-23T00:29:11.139Z,100042.38
2023-02-23T00:31:38.740Z,100034.59
2023-02-23T00:34:06.163Z,100030.06
2023-02-23T00:36:34.643Z,100038.50
2023-02-23T00:39:18.181Z,100034.94
2023-02-23T00:41:46.531Z,100034.88
2023-02-23T00:44:15.397Z,100028.75
2023-02-23T00:46:43.679Z,100039.16
2023-02-23T00:49:12.463Z,100023.38
2023-02-23T00:51:39.447Z,100028.69
2023-02-23T00:54:06.992Z,100033.75
2023-02-23T00:56:34.163Z,100035.31
2023-02-23T00:59:00.665Z,100035.19
2023-02-23T01:01:27.562Z,100034.34
2023-02-23T01:03:54.220Z,100024.69
2023-02-23T01:06:21.301Z,100024.56
2023-02-23T01:08:49.835Z,100027.03
2023-02-23T01:11:21.202Z,100030.38
2023-02-23T01:13:49.308Z,100026.75
2023-02-23T01:16:19.256Z,100024.09
2023-02-23T01:18:46.673Z,100012.63
2023-02-23T01:21:22.914Z,100021.25
2023-02-23T01:23:50.928Z,100025.56
2023-02-23T01:26:22.657Z,100019.22
2023-02-23T01:28:54.069Z,100025.16
2023-02-23T01:31:21.945Z,100024.19
2023-02-23T01:33:52.886Z,100011.16
2023-02-23T01:36:19.479Z,100013.63
2023-02-23T01:38:46.056Z,100016.91
2023-02-23T01:41:13.190Z,100016.09
2023-02-23T01:44:03.636Z,100015.16
2023-02-23T01:46:39.290Z,100004.59
2023-02-23T01:49:10.677Z,100010.69
2023-02-23T01:51:49.289Z,100004.66
2023-02-23T01:54:24.221Z,100008.09
2023-02-23T01:56:58.348Z,99999.22
2023-02-23T01:59:34.329Z,100006.06
2023-02-23T02:02:01.058Z,99996.50
2023-02-23T02:04:28.983Z,99994.00
2023-02-23T02:06:56.891Z,99993.06
2023-02-23T02:09:27.943Z,99998.38
2023-02-23T02:11:54.436Z,99987.00
2023-02-23T02:14:30.896Z,99990.34
2023-02-23T02:17:37.430Z,99986.84
2023-02-23T02:20:33.509Z,99989.38
2023-02-23T02:23:41.356Z,99977.13
2023-02-23T02:26:21.805Z,99977.91
2023-02-23T02:29:31.590Z,99977.03
2023-02-23T02:32:18.142Z,99985.53
2023-02-23T02:35:10.918Z,99973.50
2023-02-23T02:37:47.752Z,99991.53
2023-02-23T02:40:25.180Z,99980.25
2023-02-23T02:43:12.551Z,99973.34
2023-02-23T02:45:51.741Z,99982.72
2023-02-23T02:48:45.518Z,99986.22
2023-02-23T02:51:28.490Z,99974.00
2023-02-23T02:54:07.315Z,99974.88
2023-02-23T02:56:40.637Z,99981.00
2023-02-23T02:59:37.464Z,99973.00
2023-02-23T03:02:26.058Z,99976.44
2023-02-23T03:05:11.134Z,99973.81
2023-02-23T03:08:07.351Z,99974.69
2023-02-23T03:11:05.596Z,99976.34
2023-02-23T03:14:24.166Z,99970.78
2023-02-23T03:17:12.232Z,99970.78
2023-02-23T03:20:17.697Z,99965.72
2023-02-23T03:23:28.220Z,99964.28
2023-02-23T03:26:23.313Z,99962.31
2023-02-23T03:29:20.289Z,99967.75
2023-02-23T03:32:12.215Z,99963.56
2023-02-23T03:35:10.177Z,99958.53
2023-02-23T03:38:09.133Z,99958.03
2023-02-23T03:40:57.564Z,99953.75
2023-02-23T03:43:50.044Z,99950.38
2023-02-23T03:46:37.175Z,99950.25
2023-02-23T03:49:26.989Z,99948.72
2023-02-23T03:52:18.111Z,99957.69
2023-02-23T03:55:08.627Z,99949.00
2023-02-23T03:57:56.735Z,99956.63
2023-02-23T04:00:48.826Z,99955.91
2023-02-23T04:03:37.506Z,99952.69
2023-02-23T04:06:27.242Z,99954.38
2023-02-23T04:09:16.908Z,99940.66
2023-02-23T04:12:10.991Z,99948.00
2023-02-23T04:14:48.750Z,99954.19
2023-02-23T04:17:16.679Z,99945.47
2023-02-23T04:19:53.557Z,99951.59
2023-02-23T04:22:20.928Z,99943.66
2023-02-23T04:24:48.599Z,99947.47
2023-02-23T04:27:15.813Z,99946.56
2023-02-23T04:29:42.502Z,99945.25
2023-02-23T04:32:18.439Z,99945.47
2023-02-23T04:34:45.435Z,99949.00
2023-02-23T04:37:13.053Z,99946.38
2023-02-23T04:39:39.713Z,99948.13
2023-02-23T04:42:06.257Z,99949.78
2023-02-23T04:44:32.846Z,99948.31
2023-02-23T04:46:59.333Z,99947.94
2023-02-23T04:49:25.876Z,99946.81
2023-02-23T04:51:52.443Z,99945.25
2023-02-23T04:54:18.940Z,99944.59
2023-02-23T04:56:45.419Z,99943.66
2023-02-23T04:59:11.913Z,99946.75
2023-02-23T05:01:38.669Z,99941.63
2023-02-23T05:04:05.278Z,99942.66
2023-02-23T05:06:33.191Z,99939.03
2023-02-23T05:08:59.738Z,99940.16
2023-02-23T05:11:27.861Z,99936.53
2023-02-23T05:13:54.690Z,99940.72
2023-02-23T05:16:21.625Z,99942.47
2023-02-23T05:18:48.398Z,99940.72
2023-02-23T05:21:14.892Z,99936.25
2023-02-23T05:23:41.423Z,99932.41
2023-02-23T05:26:11.055Z,99932.16
2023-02-23T05:28:40.225Z,99930.16
2023-02-23T05:31:07.022Z,99931.41
2023-02-23T05:33:35.163Z,99936.25
2023-02-23T05:36:05.364Z,99936.25
2023-02-23T05:38:31.890Z,99928.50
2023-02-23T05:40:58.385Z,99932.69
2023-02-23T05:43:24.965Z,99941.44
2023-02-23T05:45:51.460Z,99935.16
2023-02-23T05:48:17.984Z,99934.75
2023-02-23T05:50:44.467Z,99928.50
2023-02-23T05:53:11.354Z,99931.69
2023-02-23T05:55:37.829Z,99933.53
2023-02-23T05:58:04.314Z,99933.81
2023-02-23T06:00:30.884Z,99931.16
2023-02-23T06:02:57.381Z,99936.31
2023-02-23T06:05:23.866Z,99934.50
2023-02-23T06:07:50.448Z,99934.44
2023-02-23T06:10:17.357Z,99938.28
2023-02-23T06:12:44.839Z,99932.16
2023-02-23T06:15:11.588Z,99945.97
2023-02-23T06:17:38.081Z,99932.41
2023-02-23T06:20:07.179Z,99939.00
2023-02-23T06:22:33.753Z,99938.72
2023-02-23T06:25:00.289Z,99939.19
2023-02-23T06:27:26.846Z,99936.84
2023-02-23T06:29:53.832Z,99932.53
2023-02-23T06:32:20.376Z,99944.28
2023-02-23T06:34:46.885Z,99945.56
2023-02-23T06:37:16.103Z,99941.78
2023-02-23T06:39:42.629Z,99940.66
2023-02-23T06:42:09.146Z,99942.09
2023-02-23T06:44:35.806Z,99944.16
2023-02-23T06:47:05.809Z,99943.06
2023-02-23T06:49:32.493Z,99938.38
2023-02-23T06:51:58.989Z,99939.47
2023-02-23T06:54:26.543Z,99943.19
2023-02-23T06:56:53.343Z,99944.81
2023-02-23T06:59:19.949Z,99944.28
2023-02-23T07:01:46.485Z,99944.19
2023-02-23T07:04:15.545Z,99939.59
2023-02-23T07:06:43.202Z,99948.19
2023-02-23T07:09:09.828Z,99945.06
2023-02-23T07:11:36.324Z,99939.25
2023-02-23T07:14:02.840Z,99939.72
2023-02-23T07:16:29.647Z,99942.06
2023-02-23T07:18:56.434Z,99932.53
2023-02-23T07:21:23.024Z,99949.44
2023-02-23T07:23:50.134Z,99938.44
2023-02-23T07:26:18.489Z,99938.69
2023-02-23T07:28:45.026Z,99948.06
2023-02-23T07:31:11.667Z,99935.88
2023-02-23T07:33:38.319Z,99939.81
2023-02-23T07:36:05.167Z,99934.34
2023-02-23T07:38:31.646Z,99930.16
2023-02-23T07:40:58.202Z,99927.31
2023-02-23T07:43:24.770Z,99919.47
2023-02-23T07:45:51.782Z,99932.81
2023-02-23T07:48:19.204Z,99924.22
2023-02-23T07:50:45.734Z,99922.31
2023-02-23T07:53:12.766Z,99921.22
2023-02-23T07:55:40.273Z,99925.94
2023-02-23T07:58:07.976Z,99925.59
2023-02-23T08:00:36.637Z,99927.16
2023-02-23T08:03:03.223Z,99912.00
2023-02-23T08:05:29.766Z,99925.50
2023-02-23T08:07:57.976Z,99919.34
2023-02-23T08:10:25.128Z,99920.69
2023-02-23T08:12:51.638Z,99927.91
2023-02-23T08:15:18.262Z,99922.59
2023-02-23T08:17:44.905Z,99928.63
2023-02-23T08:20:11.580Z,99920.78
2023-02-23T08:22:48.766Z,99918.41
2023-02-23T08:25:15.720Z,99917.09
2023-02-23T08:27:42.499Z,99916.13
2023-02-23T08:30:09.987Z,99917.69
2023-02-23T08:32:36.563Z,99916.47
2023-02-23T08:35:03.538Z,99908.97
2023-02-23T08:37:30.227Z,99927.03
2023-02-23T08:39:57.305Z,99921.94
2023-02-23T08:42:23.786Z,99918.63
2023-02-23T08:44:50.286Z,99914.47
2023-02-23T08:47:21.937Z,99911.38
2023-02-23T08:49:48.876Z,99915.09
2023-02-23T08:52:15.643Z,99917.47
2023-02-23T08:54:42.262Z,99918.66
2023-02-23T08:57:10.254Z,99921.34
2023-02-23T08:59:39.220Z,99916.94
2023-02-23T09:02:07.613Z,99909.28
2023-02-23T09:04:38.030Z,99907.25
2023-02-23T09:07:05.042Z,99902.50
2023-02-23T09:09:32.622Z,99910.78
2023-02-23T09:12:00.072Z,99909.78
2023-02-23T09:14:28.047Z,99914.91
2023-02-23T09:16:54.518Z,99908.19
2023-02-23T09:19:21.001Z,99905.19
2023-02-23T09:21:47.481Z,99903.81
2023-02-23T09:24:14.013Z,99909.66
2023-02-23T09:26:43.523Z,99905.34
2023-02-23T09:29:11.532Z,99907.28
2023-02-23T09:31:39.085Z,99905.59
2023-02-23T09:34:05.743Z,99902.75
2023-02-23T09:36:32.379Z,99899.22
2023-02-23T09:38:58.930Z,99894.06
2023-02-23T09:41:25.377Z,99883.28
2023-02-23T09:44:02.304Z,99881.91
2023-02-23T09:46:40.420Z,99873.72
2023-02-23T09:49:14.780Z,99876.63
2023-02-23T09:51:48.411Z,99874.03
2023-02-23T09:54:18.035Z,99874.00
2023-02-23T09:56:47.733Z,99876.44
2023-02-23T09:59:20.270Z,99877.19
2023-02-23T10:01:49.827Z,99879.44
2023-02-23T10:04:20.509Z,99873.94
2023-02-23T10:07:07.096Z,99868.78
2023-02-23T10:09:44.425Z,99870.41
2023-02-23T10:12:25.483Z,99872.44
2023-02-23T10:15:23.906Z,99869.91
2023-02-23T10:18:46.422Z,99867.75
2023-02-23T10:21:22.489Z,99858.97
2023-02-23T10:23:56.641Z,99857.72
2023-02-23T10:26:27.967Z,99857.53
2023-02-23T10:28:58.202Z,99854.09
2023-02-23T10:31:31.344Z,99859.00
2023-02-23T10:34:03.998Z,99844.84
2023-02-23T10:36:38.101Z,99842.09
2023-02-23T10:39:07.433Z,99848.41
2023-02-23T10:41:37.016Z,99852.94
2023-02-23T10:44:16.474Z,99852.09
2023-02-23T10:46:46.105Z,99836.66
2023-02-23T10:49:22.620Z,99833.34
2023-02-23T10:51:49.650Z,99832.63
2023-02-23T10:54:38.817Z,99838.91
2023-02-23T10:57:08.088Z,99826.09
2023-02-23T10:59:35.090Z,99821.44
2023-02-23T11:02:22.321Z,99818.94
2023-02-23T11:04:57.501Z,99819.69
2023-02-23T11:07:29.773Z,99798.53
2023-02-23T11:09:58.059Z,99802.19
2023-02-23T11:12:35.921Z,99802.97
2023-02-23T11:15:39.349Z,99788.75
2023-02-23T11:18:20.233Z,99792.50
2023-02-23T11:20:48.506Z,99795.50
2023-02-23T11:23:30.209Z,99783.75
2023-02-23T11:26:07.519Z,99794.41
2023-02-23T11:28:37.931Z,99789.28
2023-02-23T11:31:14.741Z,99778.88
2023-02-23T11:33:44.442Z,99782.63
2023-02-23T11:36:27.846Z,99779.09
2023-02-23T11:39:14.225Z,99782.69
2023-02-23T11:41:40.775Z,99774.91
2023-02-23T11:44:07.375Z,99770.66
2023-02-23T11:46:38.308Z,99766.97
2023-02-23T11:49:10.239Z,99755.72
2023-02-23T11:51:40.692Z,99760.16
2023-02-23T11:54:19.665Z,99761.91
2023-02-23T11:56:55.140Z,99751.38
2023-02-23T11:59:29.913Z,99753.13
2023-02-23T12:02:04.899Z,99744.34
2023-02-23T12:04:37.224Z,99745.03
2023-02-23T12:07:26.630Z,99742.44
2023-02-23T12:10:04.076Z,99737.06
2023-02-23T12:12:40.109Z,99735.41
2023-02-23T12:15:14.836Z,99731.16
2023-02-23T12:17:51.154Z,99733.00
2023-02-23T12:20:23.644Z,99726.00
2023-02-23T12:22:59.574Z,99719.81
2023-02-23T12:25:42.846Z,99727.72
2023-02-23T12:28:20.291Z,99724.25
2023-02-23T12:31:04.650Z,99726.00
2023-02-23T12:33:47.136Z,99720.59
2023-02-23T12:36:30.081Z,99716.16
2023-02-23T12:39:04.777Z,99711.63
2023-02-23T12:41:38.912Z,99707.19
2023-02-23T12:44:37.712Z,99702.25
2023-02-23T12:47:32.043Z,99701.84
2023-02-23T12:50:07.442Z,99700.59
2023-02-23T12:52:39.542Z,99703.22
2023-02-23T12:55:11.652Z,99693.22
2023-02-23T12:57:48.500Z,99698.44
2023-02-23T13:00:39.624Z,99693.56
2023-02-23T13:03:40.264Z,99686.38
2023-02-23T13:06:25.536Z,99678.78
2023-02-23T13:09:02.633Z,99690.69
2023-02-23T13:11:54.001Z,99681.03
2023-02-23T13:14:33.019Z,99684.69
2023-02-23T13:17:32.052Z,99674.91
2023-02-23T13:20:03.610Z,99669.78
2023-02-23T13:22:40.692Z,99669.53
2023-02-23T13:25:24.706Z,99668.63
2023-02-23T13:27:55.526Z,99672.34
2023-02-23T13:30:22.707Z,99661.72
2023-02-23T13:32:49.821Z,99656.28
2023-02-23T13:35:20.503Z,99654.41
2023-02-23T13:38:19.764Z,99660.19
2023-02-23T13:40:55.748Z,99663.00
2023-02-23T13:44:01.558Z,99650.06
2023-02-23T13:46:54.021Z,99647.47
2023-02-23T13:49:36.610Z,99648.75
2023-02-23T13:52:16.775Z,99654.72
2023-02-23T13:54:57.470Z,99644.63
2023-02-23T13:57:24.892Z,99645.09
2023-02-23T13:59:52.456Z,99651.41
2023-02-23T14:02:39.232Z,99652.88
2023-02-23T14:05:27.889Z,99648.41
2023-02-23T14:08:07.800Z,99648.25
2023-02-23T14:10:41.190Z,99641.00
2023-02-23T14:13:13.431Z,99647.63
2023-02-23T14:15:53.617Z,99641.41
2023-02-23T14:18:21.060Z,99639.75
2023-02-23T14:21:05.409Z,99636.16
2023-02-23T14:23:49.743Z,99641.59
2023-02-23T14:26:28.403Z,99632.75
2023-02-23T14:29:19.177Z,99633.03
2023-02-23T14:32:00.839Z,99625.91
2023-02-23T14:34:49.734Z,99632.13
2023-02-23T14:37:39.940Z,99626.88
2023-02-23T14:40:24.900Z,99630.16
2023-02-23T14:42:57.111Z,99625.47
2023-02-23T14:45:37.427Z,99628.19
2023-02-23T14:48:13.532Z,99620.19
2023-02-23T14:50:41.470Z,99618.19
2023-02-23T14:53:18.610Z,99618.22
2023-02-23T14:55:45.723Z,99608.66
2023-02-23T14:58:30.495Z,99614.91
2023-02-23T15:00:57.121Z,99608.75
2023-02-23T15:03:23.637Z,99606.88
2023-02-23T15:05:58.535Z,99601.53
2023-02-23T15:08:28.101Z,99611.25
2023-02-23T15:11:04.535Z,99598.22
2023-02-23T15:13:34.170Z,99606.06
2023-02-23T15:16:16.137Z,99601.78
2023-02-23T15:18:44.547Z,99592.25
2023-02-23T15:21:13.969Z,99590.56
2023-02-23T15:23:40.626Z,99593.13
2023-02-23T15:26:32.096Z,99593.22
2023-02-23T15:29:10.715Z,99587.94
2023-02-23T15:31:41.213Z,99585.41
2023-02-23T15:34:11.201Z,99583.66
2023-02-23T15:36:41.389Z,99572.28
2023-02-23T15:39:13.541Z,99577.53
2023-02-23T15:41:42.690Z,99577.56
2023-02-23T15:44:13.802Z,99580.22
2023-02-23T15:46:42.584Z,99575.00
2023-02-23T15:49:13.450Z,99571.50
2023-02-23T15:51:48.835Z,99567.13
2023-02-23T15:54:29.878Z,99580.31
2023-02-23T15:57:02.235Z,99568.88
2023-02-23T15:59:34.774Z,99577.72
2023-02-23T16:02:03.121Z,99568.06
2023-02-23T16:04:33.888Z,99573.44
2023-02-23T16:07:28.332Z,99566.44
2023-02-23T16:10:26.909Z,99565.63
2023-02-23T16:12:54.778Z,99570.94
2023-02-23T16:15:25.901Z,99566.56
2023-02-23T16:17:58.368Z,99558.69
2023-02-23T16:21:04.359Z,99560.47
2023-02-23T16:23:35.618Z,99563.13
2023-02-23T16:26:12.207Z,99556.13
2023-02-23T16:28:44.246Z,99566.66
2023-02-23T16:31:13.477Z,99565.78
2023-02-23T16:33:54.552Z,99564.06
2023-02-23T16:36:24.796Z,99557.06
2023-02-23T16:39:00.562Z,99552.75
2023-02-23T16:41:31.237Z,99558.00
2023-02-23T16:44:03.598Z,99563.25
2023-02-23T16:46:32.979Z,99555.38
2023-02-23T16:49:10.334Z,99558.00
2023-02-23T16:51:36.975Z,99560.66
2023-02-23T16:54:04.138Z,99563.28
2023-02-23T16:56:31.305Z,99564.16
2023-02-23T16:59:01.679Z,99560.66
2023-02-23T17:01:28.210Z,99553.66
2023-02-23T17:03:55.007Z,99557.16
2023-02-23T17:06:22.748Z,99561.53
2023-02-23T17:08:57.478Z,99554.53
2023-02-23T17:11:25.334Z,99560.66
2023-02-23T17:13:51.866Z,99554.53
2023-02-23T17:16:18.943Z,99550.19
2023-02-23T17:18:45.774Z,99562.41
2023-02-23T17:21:14.439Z,99554.56
2023-02-23T17:23:53.609Z,99553.69
2023-02-23T17:26:23.628Z,99558.03
2023-02-23T17:28:50.996Z,99558.03
2023-02-23T17:31:19.881Z,99561.53
2023-02-23T17:33:47.445Z,99559.78
2023-02-23T17:36:17.352Z,99555.41
2023-02-23T17:38:44.930Z,99558.91
2023-02-23T17:41:17.524Z,99551.03
2023-02-23T17:43:44.282Z,99555.41
2023-02-23T17:46:12.445Z,99550.16
2023-02-23T17:48:40.865Z,99551.91
2023-02-23T17:51:12.760Z,99541.44
2023-02-23T17:53:40.207Z,99547.53
2023-02-23T17:56:07.090Z,99545.78
2023-02-23T17:58:33.720Z,99546.66
2023-02-23T18:01:02.443Z,99543.16
2023-02-23T18:03:32.079Z,99531.81
2023-02-23T18:06:03.211Z,99529.16
2023-02-23T18:08:30.112Z,99530.03
2023-02-23T18:10:57.788Z,99528.28
2023-02-23T18:13:25.952Z,99522.19
2023-02-23T18:15:55.156Z,99520.44
2023-02-23T18:18:24.200Z,99521.31
2023-02-23T18:21:00.807Z,99512.56
2023-02-23T18:23:32.761Z,99513.41
2023-02-23T18:26:08.314Z,99510.81
2023-02-23T18:28:35.693Z,99518.66
2023-02-23T18:31:02.729Z,99516.94
2023-02-23T18:33:29.532Z,99516.94
2023-02-23T18:35:56.235Z,99523.03
2023-02-23T18:38:23.064Z,99523.88
2023-02-23T18:40:49.589Z,99521.25
2023-02-23T18:43:16.214Z,99516.88
2023-02-23T18:45:43.493Z,99515.97
2023-02-23T18:48:13.492Z,99514.25
2023-02-23T18:50:41.479Z,99522.13
2023-02-23T18:53:11.093Z,99515.13
2023-02-23T18:55:38.392Z,99512.53
2023-02-23T18:58:05.885Z,99509.91
2023-02-23T19:00:40.352Z,99509.91
2023-02-23T19:03:07.589Z,99505.53
2023-02-23T19:05:36.523Z,99503.81
2023-02-23T19:08:04.309Z,99504.59
2023-02-23T19:10:30.997Z,99496.78
2023-02-23T19:12:57.701Z,99502.88
2023-02-23T19:15:24.275Z,99498.44
2023-02-23T19:17:50.926Z,99506.34
2023-02-23T19:20:17.985Z,99508.13
2023-02-23T19:22:45.738Z,99501.16
2023-02-23T19:25:14.820Z,99505.50
2023-02-23T19:27:43.060Z,99502.03
2023-02-23T19:30:11.081Z,99500.25
2023-02-23T19:32:40.028Z,99503.75
2023-02-23T19:35:10.583Z,99502.03
2023-02-23T19:37:40.705Z,99507.25
2023-02-23T19:40:08.037Z,99501.13
2023-02-23T19:42:35.306Z,99506.31
2023-02-23T19:45:01.959Z,99500.19
2023-02-23T19:47:28.483Z,99497.47
2023-02-23T19:49:56.159Z,99504.38
2023-02-23T19:52:24.792Z,99496.56
2023-02-23T19:54:51.356Z,99490.47
2023-02-23T19:57:17.895Z,99487.84
2023-02-23T19:59:44.437Z,99493.13
2023-02-23T20:02:11.439Z,99493.06
2023-02-23T20:04:38.282Z,99489.50
2023-02-23T20:07:04.849Z,99482.44
2023-02-23T20:09:31.368Z,99484.19
2023-02-23T20:11:57.889Z,99486.84
2023-02-23T20:14:25.077Z,99488.59
2023-02-23T20:16:51.616Z,99485.13
2023-02-23T20:19:19.728Z,99483.41
2023-02-23T20:21:46.340Z,99479.84
2023-02-23T20:24:13.274Z,99475.53
2023-02-23T20:26:39.880Z,99478.19
2023-02-23T20:29:10.849Z,99469.56
2023-02-23T20:31:41.791Z,99473.94
2023-02-23T20:34:11.297Z,99470.47
2023-02-23T20:36:38.049Z,99467.88
2023-02-23T20:39:05.014Z,99465.25
2023-02-23T20:41:31.752Z,99468.75
2023-02-23T20:44:00.857Z,99467.94
2023-02-23T20:46:31.722Z,99456.63
2023-02-23T20:48:59.594Z,99464.53
2023-02-23T20:51:26.660Z,99461.91
2023-02-23T20:53:53.304Z,99459.25
2023-02-23T20:56:23.550Z,99458.41
2023-02-23T20:58:54.517Z,99453.16
2023-02-23T21:01:27.255Z,99456.66
2023-02-23T21:03:59.734Z,99456.63
2023-02-23T21:06:28.231Z,99461.88
2023-02-23T21:09:02.915Z,99460.13
2023-02-23T21:11:32.131Z,99454.88
2023-02-23T21:13:59.858Z,99451.41
2023-02-23T21:16:26.806Z,99447.91
2023-02-23T21:19:04.315Z,99454.91
2023-02-23T21:21:52.530Z,99453.13
2023-02-23T21:24:19.479Z,99446.16
2023-02-23T21:26:46.104Z,99446.16
2023-02-23T21:29:14.932Z,99448.75
2023-02-23T21:31:43.489Z,99440.00
2023-02-23T21:34:11.216Z,99436.50
2023-02-23T21:36:37.997Z,99432.09
2023-02-23T21:39:06.217Z,99436.47
2023-02-23T21:41:33.798Z,99436.47
2023-02-23T21:44:01.765Z,99433.00
2023-02-23T21:46:28.717Z,99427.69
2023-02-23T21:48:55.278Z,99426.00
2023-02-23T21:51:22.167Z,99427.75
2023-02-23T21:53:48.984Z,99425.97
2023-02-23T21:56:21.282Z,99419.84
2023-02-23T21:58:53.334Z,99413.72
2023-02-23T22:01:34.750Z,99415.47
2023-02-23T22:04:01.839Z,99409.38
2023-02-23T22:06:38.972Z,99406.75
2023-02-23T22:09:07.257Z,99412.00
2023-02-23T22:11:35.791Z,99412.88
2023-02-23T22:14:05.173Z,99412.00
2023-02-23T22:16:35.858Z,99414.63
2023-02-23T22:19:04.362Z,99411.13
2023-02-23T22:21:41.941Z,99401.50
2023-02-23T22:24:10.535Z,99405.88
2023-02-23T22:26:39.520Z,99398.88
2023-02-23T22:29:07.478Z,99400.63
2023-02-23T22:31:34.320Z,99395.41
2023-02-23T22:34:01.070Z,99392.75
2023-02-23T22:36:27.834Z,99392.75
2023-02-23T22:38:58.419Z,99392.75
2023-02-23T22:41:25.052Z,99390.13
2023-02-23T22:43:51.561Z,99382.25
2023-02-23T22:46:18.091Z,99385.78
2023-02-23T22:48:45.159Z,99384.00
2023-02-23T22:51:13.510Z,99379.63
2023-02-23T22:53:40.294Z,99379.63
2023-02-23T22:56:07.071Z,99379.63
2023-02-23T22:58:33.609Z,99380.50
2023-02-23T23:01:06.479Z,99380.50
2023-02-23T23:03:39.732Z,99377.88
2023-02-23T23:06:11.480Z,99380.50
2023-02-23T23:08:43.758Z,99373.50
2023-02-23T23:11:13.043Z,99370.03
2023-02-23T23:13:44.982Z,99364.78
2023-02-23T23:16:28.880Z,99363.00
2023-02-23T23:19:02.763Z,99363.03
2023-02-23T23:21:31.970Z,99366.50
2023-02-23T23:24:01.221Z,99371.75
2023-02-23T23:26:28.624Z,99353.41
2023-02-23T23:28:58.763Z,99360.38
2023-02-23T23:31:29.226Z,99349.00
2023-02-23T23:34:05.177Z,99349.88
2023-02-23T23:36:34.735Z,99348.13
2023-02-23T23:39:02.563Z,99347.25
2023-02-23T23:41:35.442Z,99345.53
2023-02-23T23:44:05.349Z,99336.81
2023-02-23T23:46:35.546Z,99329.78
2023-02-23T23:49:06.108Z,99330.66
2023-02-23T23:51:39.105Z,99321.06
2023-02-23T23:54:09.756Z,99324.59
2023-02-23T23:56:39.762Z,99316.72
2023-02-23T23:59:12.943Z,99319.34
